ZBTJ/TSN METAR and TAF weather

Enter ICAO airport designator
Station Type Date Time Source
ZBTJ METAR 2020/01/21 09:30 UTC NOAA

ZBTJ 210930Z 17002MPS 8000 NSC 02/M05 Q1023 NOSIG


Station Type Date Time Source
ZBTJ Decoded METAR 2020/01/21 09:30 UTC NOAA

Tianjin / Zhangguizhu, China (ZBTJ) 39-11N 117-21E
Jan 21, 2020 - 04:30 AM EST / 2020.01.21 0930 UTC
Wind: from the S (170 degrees) at 4 MPH (4 KT):0
Visibility: 4 mile(s):0
Temperature: 35 F (2 C)
Dew Point: 23 F (-5 C)
Relative Humidity: 59%
Pressure (altimeter): 30.21 in. Hg (1023 hPa)
ob: ZBTJ 210930Z 17002MPS 8000 NSC 02/M05 Q1023 NOSIG
cycle: 9

Station Type Date Time Source
ZBTJ TAF 2020/01/21 06:03 UTC NOAA

TAF ZBTJ 210258Z 2106/2206 20003MPS 5000 HZ NSC TX07/2206Z TNM04/2122Z
BECMG 2115/2116 1700 BR
BECMG 2202/2203 3000 HZ

Example: see airport list